Time;durP1;ratioP1;P1;durP2;ratioP2;P2;SDS_P1;SDS_P2;PMS_P1;PMS_P2;Temp;Humidity;BMP_temperature;BMP_pressure;BME280_temperature;BME280_humidity;BME280_pressure;Samples;Min_cycle;Max_cycle;Signal;HPM_P1;HPM_P2
2021/03/26 00:08:52;;;;;;;99.5;73.8;;;;;;;-0.81;100;99198.86;;;;
2021/03/26 00:18:49;;;;;;;113.6;82.7;;;;;;;-0.82;100;99203.33;;;;
2021/03/26 00:28:47;;;;;;;112.9;83.5;;;;;;;-0.85;100;99210.91;;;;
2021/03/26 00:38:44;;;;;;;109.1;75.9;;;;;;;-0.95;100;99206.12;;;;
2021/03/26 00:48:41;;;;;;;98.5;66.6;;;;;;;-0.93;100;99201.41;;;;
2021/03/26 00:58:39;;;;;;;84;61.8;;;;;;;-1.01;100;99191.91;;;;
2021/03/26 01:08:36;;;;;;;71.8;55.3;;;;;;;-0.95;100;99182.3;;;;
2021/03/26 01:18:34;;;;;;;94.6;62.5;;;;;;;-1.05;100;99185.45;;;;
2021/03/26 01:28:31;;;;;;;78;63.1;;;;;;;-1.23;100;99184.59;;;;
2021/03/26 01:38:28;;;;;;;87.1;67.1;;;;;;;-1.36;100;99201.39;;;;
2021/03/26 01:48:25;;;;;;;96.9;76.5;;;;;;;-1.43;100;99192.7;;;;
2021/03/26 01:58:22;;;;;;;123.5;85.5;;;;;;;-1.4;100;99197.55;;;;
2021/03/26 02:08:20;;;;;;;98.7;74.6;;;;;;;-1.41;100;99211.79;;;;
2021/03/26 02:18:17;;;;;;;101.3;71.3;;;;;;;-1.5;100;99217.56;;;;
2021/03/26 02:28:14;;;;;;;110.9;71.4;;;;;;;-1.59;100;99224.92;;;;
2021/03/26 02:38:11;;;;;;;98.1;67.9;;;;;;;-1.77;100;99216.93;;;;
2021/03/26 02:48:09;;;;;;;87.5;70.5;;;;;;;-1.8;100;99219.97;;;;
2021/03/26 02:58:06;;;;;;;86.6;59.8;;;;;;;-1.8;100;99227.89;;;;
2021/03/26 03:08:03;;;;;;;77.3;51.5;;;;;;;-1.82;100;99227.31;;;;
2021/03/26 03:18:00;;;;;;;71.7;50.9;;;;;;;-1.81;100;99240.32;;;;
2021/03/26 03:27:57;;;;;;;78.4;53.1;;;;;;;-1.85;100;99238.3;;;;
2021/03/26 03:37:55;;;;;;;79.3;50.4;;;;;;;-1.86;100;99234.03;;;;
2021/03/26 03:47:52;;;;;;;69.5;48.9;;;;;;;-1.78;100;99231.97;;;;
2021/03/26 03:57:49;;;;;;;84.6;53.2;;;;;;;-1.77;100;99244.13;;;;
2021/03/26 04:07:52;;;;;;;84;62.7;;;;;;;-1.81;100;99234.22;;;;
2021/03/26 04:17:48;;;;;;;95.3;74.6;;;;;;;-1.82;100;99251.08;;;;
2021/03/26 04:27:40;;;;;;;89.2;72.9;;;;;;;-1.87;100;99251.7;;;;
2021/03/26 04:37:38;;;;;;;110.7;75.1;;;;;;;-1.83;100;99252.09;;;;
2021/03/26 04:47:35;;;;;;;106.3;77.1;;;;;;;-1.93;100;99246.47;;;;
2021/03/26 04:57:32;;;;;;;113.9;81.7;;;;;;;-1.68;100;99265.84;;;;
2021/03/26 05:07:29;;;;;;;90.5;67.3;;;;;;;-1.37;100;99254.47;;;;
2021/03/26 05:17:27;;;;;;;90.1;65.9;;;;;;;-0.98;100;99264.75;;;;
2021/03/26 05:27:24;;;;;;;94.4;74.4;;;;;;;-0.69;100;99277.3;;;;
2021/03/26 05:37:21;;;;;;;100.7;73.6;;;;;;;-0.28;100;99278.54;;;;
2021/03/26 05:47:19;;;;;;;85.2;68.9;;;;;;;0.07;100;99278.75;;;;
2021/03/26 05:57:16;;;;;;;105.5;78.7;;;;;;;0.47;100;99275.34;;;;
2021/03/26 06:07:14;;;;;;;91.4;68.4;;;;;;;0.76;100;99286.16;;;;
2021/03/26 06:17:11;;;;;;;102.5;79.2;;;;;;;1.37;100;99288.44;;;;
2021/03/26 06:27:09;;;;;;;92.6;73;;;;;;;1.77;100;99297.3;;;;
2021/03/26 06:37:25;;;;;;;86.2;72.2;;;;;;;2.31;100;99296.04;;;;
2021/03/26 06:47:04;;;;;;;94.3;73.5;;;;;;;2.85;100;99307.13;;;;
2021/03/26 06:57:24;;;;;;;87.8;67.9;;;;;;;3.5;100;99297.57;;;;
2021/03/26 07:07:18;;;;;;;87.2;66.5;;;;;;;4.21;100;99316.38;;;;
2021/03/26 07:17:05;;;;;;;73.3;59.3;;;;;;;4.76;100;99300.98;;;;
2021/03/26 07:27:02;;;;;;;86.6;66.5;;;;;;;5.48;97.75781;99303.22;;;;
2021/03/26 07:36:58;;;;;;;78.2;66.4;;;;;;;6.21;95.86719;99322.94;;;;
2021/03/26 07:46:59;;;;;;;98.7;71;;;;;;;6.95;92.66113;99326.1;;;;
2021/03/26 07:57:05;;;;;;;85.2;63.8;;;;;;;7.55;89.59766;99333.38;;;;
2021/03/26 08:07:14;;;;;;;84.1;64.2;;;;;;;8.22;87.80176;99349.11;;;;
2021/03/26 08:17:03;;;;;;;67.7;55.4;;;;;;;9.03;82.94141;99348.75;;;;
2021/03/26 08:26:55;;;;;;;60.4;49.5;;;;;;;9.53;80;99361.05;;;;
2021/03/26 08:36:51;;;;;;;74.2;52.1;;;;;;;10.08;80.7998;99352.45;;;;
2021/03/26 08:46:50;;;;;;;63.5;52;;;;;;;10.69;75.67773;99367.17;;;;
2021/03/26 08:56:53;;;;;;;70.5;51;;;;;;;11.09;73.2373;99361.22;;;;
2021/03/26 09:06:42;;;;;;;63.2;50.7;;;;;;;11.44;71.98438;99355.3;;;;
2021/03/26 09:16:40;;;;;;;63.2;48.9;;;;;;;11.9;70.08691;99358.08;;;;
2021/03/26 09:26:39;;;;;;;55.3;49.4;;;;;;;12.1;67.03027;99360.41;;;;
2021/03/26 09:36:38;;;;;;;63.1;49.8;;;;;;;12.43;66.14941;99358.41;;;;
2021/03/26 09:46:37;;;;;;;55.3;47.6;;;;;;;12.57;64.57813;99348.39;;;;
2021/03/26 09:56:37;;;;;;;59.4;44.4;;;;;;;12.65;63.82617;99348.79;;;;
2021/03/26 10:06:36;;;;;;;111.7;91.7;;;;;;;12.76;65.12988;99321.23;;;;
2021/03/26 10:16:35;;;;;;;63.6;51.2;;;;;;;12.84;65.02734;99323.2;;;;
2021/03/26 10:26:34;;;;;;;46.8;38.3;;;;;;;13.42;61.55469;99317.05;;;;
2021/03/26 10:36:33;;;;;;;46.7;40.7;;;;;;;13.74;62.03516;99314.08;;;;
2021/03/26 10:46:32;;;;;;;51.3;42.1;;;;;;;14.04;60.37402;99301.63;;;;
2021/03/26 10:56:31;;;;;;;41.8;37.1;;;;;;;14.05;60.64941;99297.8;;;;
2021/03/26 11:06:30;;;;;;;60.2;42.3;;;;;;;14.24;60.7207;99297.54;;;;
2021/03/26 11:16:30;;;;;;;41.5;36.6;;;;;;;14.71;59.49316;99288.61;;;;
2021/03/26 11:26:29;;;;;;;49.1;41.7;;;;;;;14.67;57.78125;99276.8;;;;
2021/03/26 11:36:28;;;;;;;55.3;39.6;;;;;;;14.38;58.33789;99273.85;;;;
2021/03/26 11:46:28;;;;;;;44.2;37.2;;;;;;;14.59;56.5459;99272.95;;;;
2021/03/26 11:56:27;;;;;;;41.2;33.6;;;;;;;15.09;56.36914;99259.73;;;;
2021/03/26 12:06:26;;;;;;;43.1;36.7;;;;;;;14.99;55.00293;99260.03;;;;
2021/03/26 12:16:26;;;;;;;44.3;37;;;;;;;15.28;54.2002;99236.84;;;;
2021/03/26 12:26:25;;;;;;;39.9;34.8;;;;;;;15.47;54.14355;99223.72;;;;
2021/03/26 12:36:25;;;;;;;42.1;33.7;;;;;;;15.19;54.88965;99223.3;;;;
2021/03/26 12:46:24;;;;;;;43.6;33.4;;;;;;;15.77;54.8457;99208.3;;;;
2021/03/26 12:56:23;;;;;;;47;33.1;;;;;;;15.7;53.18262;99200.65;;;;
2021/03/26 13:06:23;;;;;;;31.9;26.7;;;;;;;15.72;51.3916;99201.14;;;;
2021/03/26 13:16:22;;;;;;;32.2;28.3;;;;;;;16.08;51.22656;99190.55;;;;
2021/03/26 13:26:22;;;;;;;32.3;28.7;;;;;;;15.74;51.06055;99179.86;;;;
2021/03/26 13:36:21;;;;;;;37.1;26.8;;;;;;;16.37;52.95313;99178.86;;;;
2021/03/26 13:46:21;;;;;;;35.3;28.7;;;;;;;16.7;50.83691;99169.97;;;;
2021/03/26 13:56:20;;;;;;;40.4;30.1;;;;;;;16.76;50.55469;99165.94;;;;
2021/03/26 14:06:19;;;;;;;39.8;29.9;;;;;;;16.84;50.54199;99154.95;;;;
2021/03/26 14:16:19;;;;;;;31.8;26.4;;;;;;;16.55;50.46289;99147.7;;;;
2021/03/26 14:26:18;;;;;;;31.4;23.4;;;;;;;16.55;49.16016;99134.09;;;;
2021/03/26 14:36:18;;;;;;;29.7;25.7;;;;;;;16.73;49.46582;99133.95;;;;
2021/03/26 14:46:17;;;;;;;41.1;26;;;;;;;16.66;49.99023;99117.36;;;;
2021/03/26 14:56:17;;;;;;;43.3;31;;;;;;;16.83;50.24023;99122.64;;;;
2021/03/26 15:06:17;;;;;;;35.1;31;;;;;;;16.13;51.61133;99110.71;;;;
2021/03/26 15:16:17;;;;;;;35.7;31.7;;;;;;;15.42;52.96484;99109.8;;;;
2021/03/26 15:26:15;;;;;;;33.2;28.8;;;;;;;15.87;52.82422;99104.63;;;;
2021/03/26 15:36:16;;;;;;;41.1;31.9;;;;;;;16.53;51.06055;99095.49;;;;
2021/03/26 15:46:15;;;;;;;28.8;25.8;;;;;;;16.36;51.11914;99092.13;;;;
2021/03/26 15:56:14;;;;;;;103.1;78.5;;;;;;;16.77;50.58008;99092.09;;;;
2021/03/26 16:06:14;;;;;;;36.2;28.1;;;;;;;16.7;50.22559;99091.04;;;;
2021/03/26 16:16:13;;;;;;;34.5;28.8;;;;;;;15.89;51.75586;99095.05;;;;
2021/03/26 16:26:13;;;;;;;45.4;28.9;;;;;;;14.74;54.70801;99092.61;;;;
2021/03/26 16:36:12;;;;;;;40.1;30.6;;;;;;;13.79;57.05859;99088.25;;;;
2021/03/26 16:46:12;;;;;;;48;35.8;;;;;;;13.07;58.42773;99092.14;;;;
2021/03/26 16:56:11;;;;;;;59.7;44.9;;;;;;;12.14;61.125;99089.59;;;;
2021/03/26 17:06:10;;;;;;;44.1;38.4;;;;;;;11.26;62.75098;99067.39;;;;
2021/03/26 17:16:35;;;;;;;62.4;49.6;;;;;;;10.78;65.28809;99093.11;;;;
2021/03/26 17:26:35;;;;;;;66.8;58.8;;;;;;;10.28;67.12598;99092.83;;;;
2021/03/26 17:36:06;;;;;;;70;56.7;;;;;;;9.88;68.52148;99091.52;;;;
2021/03/26 17:46:05;;;;;;;59.7;50.6;;;;;;;9.55;69.63184;99087.09;;;;
2021/03/26 17:56:04;;;;;;;73.4;56.3;;;;;;;8.92;70.23047;99095.32;;;;
2021/03/26 18:06:02;;;;;;;82.8;58.2;;;;;;;8.34;71.55176;99109.8;;;;
2021/03/26 18:26:12;;;;;;;59.5;46;;;;;;;7.59;74.98438;99114.5;;;;
2021/03/26 18:35:58;;;;;;;52.6;42.6;;;;;;;7.34;75.96094;99114.59;;;;
2021/03/26 18:45:56;;;;;;;59.5;42.8;;;;;;;6.97;77.30762;99115.77;;;;
2021/03/26 18:55:55;;;;;;;59.9;46.9;;;;;;;6.54;78.06836;99119.81;;;;
2021/03/26 19:05:53;;;;;;;61;51;;;;;;;6.42;82.99023;99110.45;;;;
2021/03/26 19:15:51;;;;;;;83.3;63.4;;;;;;;6.61;84.41113;99106.16;;;;
2021/03/26 19:25:49;;;;;;;144.9;110;;;;;;;7;82.98047;99112.55;;;;
2021/03/26 19:35:48;;;;;;;104.3;83.9;;;;;;;6.71;82.32129;99114.18;;;;
2021/03/26 19:45:46;;;;;;;86.3;68.1;;;;;;;6.47;83.64746;99121.15;;;;
2021/03/26 19:55:44;;;;;;;85.3;69.5;;;;;;;6.13;84.14844;99117.38;;;;
2021/03/26 20:05:43;;;;;;;80.4;66.5;;;;;;;5.79;85.08594;99111.66;;;;
2021/03/26 20:15:41;;;;;;;90.8;71.7;;;;;;;5.46;85.75586;99107.52;;;;
2021/03/26 20:25:39;;;;;;;81.3;67.6;;;;;;;5.35;88.56738;99105.86;;;;
2021/03/26 20:35:38;;;;;;;79.2;66.5;;;;;;;5.28;89.92871;99099.95;;;;
2021/03/26 20:45:37;;;;;;;88.1;69.4;;;;;;;5.06;89.17578;99103.6;;;;
2021/03/26 20:55:33;;;;;;;108.5;80.5;;;;;;;4.92;91.72949;99099.78;;;;
2021/03/26 21:05:31;;;;;;;87.6;73.7;;;;;;;4.62;92.04199;99104.89;;;;
2021/03/26 21:15:29;;;;;;;86.1;73.4;;;;;;;4.36;93.29102;99097.76;;;;
2021/03/26 21:25:27;;;;;;;104.3;77.8;;;;;;;4.14;94.11816;99099.69;;;;
2021/03/26 21:35:28;;;;;;;98;75.7;;;;;;;4;95.48145;99100.1;;;;
2021/03/26 21:45:23;;;;;;;81;63.7;;;;;;;3.86;95.69336;99090.89;;;;
2021/03/26 21:55:22;;;;;;;76.1;60.6;;;;;;;3.78;96.36035;99099.36;;;;
2021/03/26 22:05:19;;;;;;;74.1;60.1;;;;;;;3.78;98.87598;99101.22;;;;
2021/03/26 22:15:28;;;;;;;80.9;63.7;;;;;;;3.63;98.01465;99093.86;;;;
2021/03/26 22:25:29;;;;;;;72.8;64.8;;;;;;;3.48;98.90625;99093.67;;;;
2021/03/26 22:35:13;;;;;;;82.2;64.7;;;;;;;3.41;100;99088.53;;;;
2021/03/26 22:45:11;;;;;;;77.7;62.9;;;;;;;3.38;100;99096.22;;;;
2021/03/26 22:55:14;;;;;;;90;67;;;;;;;3.17;100;99089.02;;;;
2021/03/26 23:05:12;;;;;;;100.9;68.2;;;;;;;3.13;100;99085.23;;;;
2021/03/26 23:15:09;;;;;;;136;89.2;;;;;;;3.16;100;99076.78;;;;
2021/03/26 23:25:14;;;;;;;101.1;68.6;;;;;;;3.23;100;99069.41;;;;
2021/03/26 23:35:00;;;;;;;65.5;52.8;;;;;;;3.26;100;99066.25;;;;
2021/03/26 23:44:58;;;;;;;67.7;52.8;;;;;;;3.2;100;99065.36;;;;
2021/03/26 23:54:56;;;;;;;68.4;52.5;;;;;;;2.97;100;99058.44;;;;
